Crownpoint, New Mexico
Current Conditions -  °F | °C
As of 1:53 AM on Thursday 27 Nov 2014 (Local Time) from KGUP Reporting Station
Clear Clear  
Wind Chill: 22°   Ceiling: Unl
Heat Index: 22°   Visibility: 10mi
Dew Point: 11°   Wind: 0mph
Humidity: 63%   Direction: NA
Pressure: 30.49"   Gusts: NA
Location:  35.68°N, 108.16°W
Report Text: KGUP 270853Z AUTO 00000KT 10SM CLR M06/M12 A3049 RMK AO2 SLP301 T10561117 51002
Loading
Personal Weather Stations






























Interactive Weather Map New forecast layout! Learn more

10-Day Weather Forecast

Advertisements
Track Severe Weather on mobile